sensor_id;sensor_type;location;lat;lon;timestamp;P1;durP1;ratioP1;P2;durP2;ratioP2
15480;SDS011;7842;50.904;6.670;2023-03-14T00:00:23;5.30;;;1.92;;
15480;SDS011;7842;50.904;6.670;2023-03-14T00:02:52;6.27;;;1.77;;
15480;SDS011;7842;50.904;6.670;2023-03-14T00:05:18;4.32;;;1.77;;
15480;SDS011;7842;50.904;6.670;2023-03-14T00:07:44;4.50;;;1.70;;
15480;SDS011;7842;50.904;6.670;2023-03-14T00:10:11;6.28;;;2.05;;
15480;SDS011;7842;50.904;6.670;2023-03-14T00:12:38;3.38;;;1.52;;
15480;SDS011;7842;50.904;6.670;2023-03-14T00:15:05;7.07;;;1.85;;
15480;SDS011;7842;50.904;6.670;2023-03-14T00:17:32;5.45;;;1.58;;
15480;SDS011;7842;50.904;6.670;2023-03-14T00:19:58;5.47;;;1.80;;
15480;SDS011;7842;50.904;6.670;2023-03-14T00:22:30;5.57;;;1.67;;
15480;SDS011;7842;50.904;6.670;2023-03-14T00:24:56;5.18;;;1.77;;
15480;SDS011;7842;50.904;6.670;2023-03-14T00:27:22;6.75;;;2.15;;
15480;SDS011;7842;50.904;6.670;2023-03-14T00:29:48;4.68;;;1.75;;
15480;SDS011;7842;50.904;6.670;2023-03-14T00:32:14;5.00;;;1.88;;
15480;SDS011;7842;50.904;6.670;2023-03-14T00:34:40;5.47;;;1.77;;
15480;SDS011;7842;50.904;6.670;2023-03-14T00:37:06;6.38;;;2.47;;
15480;SDS011;7842;50.904;6.670;2023-03-14T00:39:32;7.63;;;3.80;;
15480;SDS011;7842;50.904;6.670;2023-03-14T00:41:58;5.47;;;2.70;;
15480;SDS011;7842;50.904;6.670;2023-03-14T00:44:24;5.70;;;1.90;;
15480;SDS011;7842;50.904;6.670;2023-03-14T00:46:50;5.25;;;1.80;;
15480;SDS011;7842;50.904;6.670;2023-03-14T00:49:16;5.65;;;1.80;;
15480;SDS011;7842;50.904;6.670;2023-03-14T00:51:42;5.85;;;1.85;;
15480;SDS011;7842;50.904;6.670;2023-03-14T00:54:08;6.55;;;2.17;;
15480;SDS011;7842;50.904;6.670;2023-03-14T00:56:34;6.00;;;2.13;;
15480;SDS011;7842;50.904;6.670;2023-03-14T00:59:00;4.33;;;1.17;;
15480;SDS011;7842;50.904;6.670;2023-03-14T01:01:26;6.25;;;1.75;;
15480;SDS011;7842;50.904;6.670;2023-03-14T01:03:53;3.95;;;1.38;;
15480;SDS011;7842;50.904;6.670;2023-03-14T01:06:20;5.63;;;1.38;;
15480;SDS011;7842;50.904;6.670;2023-03-14T01:08:47;3.67;;;1.23;;
15480;SDS011;7842;50.904;6.670;2023-03-14T01:11:17;2.85;;;1.38;;
15480;SDS011;7842;50.904;6.670;2023-03-14T01:13:43;5.28;;;1.70;;
15480;SDS011;7842;50.904;6.670;2023-03-14T01:16:10;4.18;;;1.90;;
15480;SDS011;7842;50.904;6.670;2023-03-14T01:18:37;3.03;;;1.65;;
15480;SDS011;7842;50.904;6.670;2023-03-14T01:21:08;5.05;;;1.45;;
15480;SDS011;7842;50.904;6.670;2023-03-14T01:23:34;3.13;;;1.30;;
15480;SDS011;7842;50.904;6.670;2023-03-14T01:26:01;3.70;;;1.27;;
15480;SDS011;7842;50.904;6.670;2023-03-14T01:28:27;2.95;;;1.00;;
15480;SDS011;7842;50.904;6.670;2023-03-14T01:30:53;4.05;;;1.30;;
15480;SDS011;7842;50.904;6.670;2023-03-14T01:33:19;2.80;;;1.00;;
15480;SDS011;7842;50.904;6.670;2023-03-14T01:35:44;3.35;;;1.05;;
15480;SDS011;7842;50.904;6.670;2023-03-14T01:38:11;2.50;;;1.10;;
15480;SDS011;7842;50.904;6.670;2023-03-14T01:40:43;4.13;;;1.40;;
15480;SDS011;7842;50.904;6.670;2023-03-14T01:43:16;3.88;;;1.20;;
15480;SDS011;7842;50.904;6.670;2023-03-14T01:46:09;3.70;;;1.17;;
15480;SDS011;7842;50.904;6.670;2023-03-14T01:51:04;2.00;;;1.07;;
15480;SDS011;7842;50.904;6.670;2023-03-14T01:53:32;2.25;;;1.00;;
15480;SDS011;7842;50.904;6.670;2023-03-14T01:55:59;2.40;;;1.10;;
15480;SDS011;7842;50.904;6.670;2023-03-14T01:58:25;4.53;;;1.67;;
15480;SDS011;7842;50.904;6.670;2023-03-14T02:00:53;2.80;;;1.20;;
15480;SDS011;7842;50.904;6.670;2023-03-14T02:03:20;3.10;;;1.15;;
15480;SDS011;7842;50.904;6.670;2023-03-14T02:05:47;2.83;;;0.90;;
15480;SDS011;7842;50.904;6.670;2023-03-14T02:08:15;3.28;;;1.27;;
15480;SDS011;7842;50.904;6.670;2023-03-14T02:10:45;3.40;;;1.20;;
15480;SDS011;7842;50.904;6.670;2023-03-14T02:13:16;4.22;;;1.40;;
15480;SDS011;7842;50.904;6.670;2023-03-14T02:15:42;2.30;;;1.00;;
15480;SDS011;7842;50.904;6.670;2023-03-14T02:18:08;2.80;;;1.10;;
15480;SDS011;7842;50.904;6.670;2023-03-14T02:20:38;3.65;;;1.02;;
15480;SDS011;7842;50.904;6.670;2023-03-14T02:23:06;2.05;;;0.93;;
15480;SDS011;7842;50.904;6.670;2023-03-14T02:28:07;2.67;;;0.90;;
15480;SDS011;7842;50.904;6.670;2023-03-14T02:30:33;1.70;;;0.80;;
15480;SDS011;7842;50.904;6.670;2023-03-14T02:33:07;2.90;;;0.90;;
15480;SDS011;7842;50.904;6.670;2023-03-14T02:35:35;4.15;;;1.17;;
15480;SDS011;7842;50.904;6.670;2023-03-14T02:38:24;3.58;;;0.82;;
15480;SDS011;7842;50.904;6.670;2023-03-14T02:40:48;2.38;;;0.93;;
15480;SDS011;7842;50.904;6.670;2023-03-14T02:43:14;4.90;;;1.23;;
15480;SDS011;7842;50.904;6.670;2023-03-14T02:45:42;3.17;;;1.10;;
15480;SDS011;7842;50.904;6.670;2023-03-14T02:48:10;2.83;;;1.17;;
15480;SDS011;7842;50.904;6.670;2023-03-14T02:50:37;2.10;;;0.80;;
15480;SDS011;7842;50.904;6.670;2023-03-14T02:53:03;2.78;;;1.10;;
15480;SDS011;7842;50.904;6.670;2023-03-14T02:55:29;2.92;;;1.17;;
15480;SDS011;7842;50.904;6.670;2023-03-14T02:57:58;3.13;;;1.27;;
15480;SDS011;7842;50.904;6.670;2023-03-14T03:00:24;2.75;;;1.05;;
15480;SDS011;7842;50.904;6.670;2023-03-14T03:02:50;3.28;;;1.25;;
15480;SDS011;7842;50.904;6.670;2023-03-14T03:05:16;1.90;;;1.08;;
15480;SDS011;7842;50.904;6.670;2023-03-14T03:07:42;3.05;;;1.30;;
15480;SDS011;7842;50.904;6.670;2023-03-14T03:10:08;2.70;;;1.15;;
15480;SDS011;7842;50.904;6.670;2023-03-14T03:12:34;3.35;;;1.35;;
15480;SDS011;7842;50.904;6.670;2023-03-14T03:15:00;3.43;;;1.30;;
15480;SDS011;7842;50.904;6.670;2023-03-14T03:17:26;3.10;;;1.30;;
15480;SDS011;7842;50.904;6.670;2023-03-14T03:19:52;5.65;;;1.60;;
15480;SDS011;7842;50.904;6.670;2023-03-14T03:22:21;6.18;;;1.60;;
15480;SDS011;7842;50.904;6.670;2023-03-14T03:24:48;4.88;;;1.83;;
15480;SDS011;7842;50.904;6.670;2023-03-14T03:27:14;4.47;;;1.60;;
15480;SDS011;7842;50.904;6.670;2023-03-14T03:29:40;5.43;;;2.00;;
15480;SDS011;7842;50.904;6.670;2023-03-14T03:32:06;5.57;;;1.70;;
15480;SDS011;7842;50.904;6.670;2023-03-14T03:34:32;6.47;;;1.70;;
15480;SDS011;7842;50.904;6.670;2023-03-14T03:36:58;5.80;;;2.03;;
15480;SDS011;7842;50.904;6.670;2023-03-14T03:39:24;5.13;;;1.60;;
15480;SDS011;7842;50.904;6.670;2023-03-14T03:41:50;4.50;;;1.70;;
15480;SDS011;7842;50.904;6.670;2023-03-14T03:44:16;4.85;;;1.83;;
15480;SDS011;7842;50.904;6.670;2023-03-14T03:46:42;6.03;;;1.40;;
15480;SDS011;7842;50.904;6.670;2023-03-14T03:49:08;5.70;;;1.48;;
15480;SDS011;7842;50.904;6.670;2023-03-14T03:51:34;3.13;;;1.20;;
15480;SDS011;7842;50.904;6.670;2023-03-14T03:54:00;4.00;;;1.27;;
15480;SDS011;7842;50.904;6.670;2023-03-14T03:56:26;4.75;;;1.20;;
15480;SDS011;7842;50.904;6.670;2023-03-14T03:58:52;3.83;;;1.00;;
15480;SDS011;7842;50.904;6.670;2023-03-14T04:01:18;3.10;;;1.00;;
15480;SDS011;7842;50.904;6.670;2023-03-14T04:03:44;2.47;;;1.15;;
15480;SDS011;7842;50.904;6.670;2023-03-14T04:06:11;3.10;;;1.00;;
15480;SDS011;7842;50.904;6.670;2023-03-14T04:08:38;2.00;;;0.90;;
15480;SDS011;7842;50.904;6.670;2023-03-14T04:11:05;1.80;;;0.80;;
15480;SDS011;7842;50.904;6.670;2023-03-14T04:13:31;2.25;;;0.90;;
15480;SDS011;7842;50.904;6.670;2023-03-14T04:15:57;2.17;;;0.90;;
15480;SDS011;7842;50.904;6.670;2023-03-14T04:18:25;2.90;;;0.90;;
15480;SDS011;7842;50.904;6.670;2023-03-14T04:20:54;2.60;;;0.90;;
15480;SDS011;7842;50.904;6.670;2023-03-14T04:23:21;1.45;;;0.80;;
15480;SDS011;7842;50.904;6.670;2023-03-14T04:25:49;2.08;;;0.90;;
15480;SDS011;7842;50.904;6.670;2023-03-14T04:28:15;2.23;;;0.80;;
15480;SDS011;7842;50.904;6.670;2023-03-14T04:30:41;2.13;;;0.75;;
15480;SDS011;7842;50.904;6.670;2023-03-14T04:33:07;1.60;;;0.90;;
15480;SDS011;7842;50.904;6.670;2023-03-14T04:35:34;1.60;;;0.65;;
15480;SDS011;7842;50.904;6.670;2023-03-14T04:38:00;1.30;;;0.55;;
15480;SDS011;7842;50.904;6.670;2023-03-14T04:40:26;1.92;;;0.73;;
15480;SDS011;7842;50.904;6.670;2023-03-14T04:42:52;1.17;;;0.60;;
15480;SDS011;7842;50.904;6.670;2023-03-14T04:45:18;1.10;;;0.60;;
15480;SDS011;7842;50.904;6.670;2023-03-14T04:47:44;1.70;;;0.70;;
15480;SDS011;7842;50.904;6.670;2023-03-14T04:50:10;1.60;;;0.70;;
15480;SDS011;7842;50.904;6.670;2023-03-14T04:52:36;1.70;;;0.63;;
15480;SDS011;7842;50.904;6.670;2023-03-14T04:55:02;1.00;;;0.70;;
15480;SDS011;7842;50.904;6.670;2023-03-14T04:57:28;1.75;;;0.60;;
15480;SDS011;7842;50.904;6.670;2023-03-14T04:59:54;1.70;;;0.70;;
15480;SDS011;7842;50.904;6.670;2023-03-14T05:02:20;1.02;;;0.50;;
15480;SDS011;7842;50.904;6.670;2023-03-14T05:04:46;0.40;;;0.30;;
15480;SDS011;7842;50.904;6.670;2023-03-14T05:07:12;1.07;;;0.50;;
15480;SDS011;7842;50.904;6.670;2023-03-14T05:09:38;0.70;;;0.40;;
15480;SDS011;7842;50.904;6.670;2023-03-14T05:12:04;0.50;;;0.40;;
15480;SDS011;7842;50.904;6.670;2023-03-14T05:14:30;0.50;;;0.40;;
15480;SDS011;7842;50.904;6.670;2023-03-14T05:16:57;0.60;;;0.30;;
15480;SDS011;7842;50.904;6.670;2023-03-14T05:19:23;0.55;;;0.40;;
15480;SDS011;7842;50.904;6.670;2023-03-14T05:21:49;0.47;;;0.35;;
15480;SDS011;7842;50.904;6.670;2023-03-14T05:24:15;1.10;;;0.47;;
15480;SDS011;7842;50.904;6.670;2023-03-14T05:26:41;0.50;;;0.30;;
15480;SDS011;7842;50.904;6.670;2023-03-14T05:29:07;0.45;;;0.30;;
15480;SDS011;7842;50.904;6.670;2023-03-14T05:31:32;0.40;;;0.33;;
15480;SDS011;7842;50.904;6.670;2023-03-14T05:33:58;0.50;;;0.40;;
15480;SDS011;7842;50.904;6.670;2023-03-14T05:36:24;0.50;;;0.35;;
15480;SDS011;7842;50.904;6.670;2023-03-14T05:38:50;0.30;;;0.30;;
15480;SDS011;7842;50.904;6.670;2023-03-14T05:41:16;0.70;;;0.40;;
15480;SDS011;7842;50.904;6.670;2023-03-14T05:43:42;0.63;;;0.40;;
15480;SDS011;7842;50.904;6.670;2023-03-14T05:46:08;1.13;;;0.43;;
15480;SDS011;7842;50.904;6.670;2023-03-14T05:48:34;0.75;;;0.30;;
15480;SDS011;7842;50.904;6.670;2023-03-14T05:51:00;0.65;;;0.40;;
15480;SDS011;7842;50.904;6.670;2023-03-14T05:53:26;0.90;;;0.40;;
15480;SDS011;7842;50.904;6.670;2023-03-14T05:55:54;1.23;;;0.50;;
15480;SDS011;7842;50.904;6.670;2023-03-14T05:58:20;0.50;;;0.35;;
15480;SDS011;7842;50.904;6.670;2023-03-14T06:00:46;0.52;;;0.30;;
15480;SDS011;7842;50.904;6.670;2023-03-14T06:03:12;0.50;;;0.30;;
15480;SDS011;7842;50.904;6.670;2023-03-14T06:05:38;0.50;;;0.30;;
15480;SDS011;7842;50.904;6.670;2023-03-14T06:08:04;1.13;;;0.40;;
15480;SDS011;7842;50.904;6.670;2023-03-14T06:10:30;0.70;;;0.40;;
15480;SDS011;7842;50.904;6.670;2023-03-14T06:12:56;0.90;;;0.40;;
15480;SDS011;7842;50.904;6.670;2023-03-14T06:15:21;0.40;;;0.40;;
15480;SDS011;7842;50.904;6.670;2023-03-14T06:17:47;0.50;;;0.43;;
15480;SDS011;7842;50.904;6.670;2023-03-14T06:20:13;0.90;;;0.47;;
15480;SDS011;7842;50.904;6.670;2023-03-14T06:22:39;1.07;;;0.57;;
15480;SDS011;7842;50.904;6.670;2023-03-14T06:25:05;0.43;;;0.32;;
15480;SDS011;7842;50.904;6.670;2023-03-14T06:27:31;0.98;;;0.47;;
15480;SDS011;7842;50.904;6.670;2023-03-14T06:29:57;0.55;;;0.40;;
15480;SDS011;7842;50.904;6.670;2023-03-14T06:32:23;0.40;;;0.40;;
15480;SDS011;7842;50.904;6.670;2023-03-14T06:34:50;0.68;;;0.40;;
15480;SDS011;7842;50.904;6.670;2023-03-14T06:37:16;0.90;;;0.60;;
15480;SDS011;7842;50.904;6.670;2023-03-14T06:39:42;0.80;;;0.70;;
15480;SDS011;7842;50.904;6.670;2023-03-14T06:42:09;1.25;;;0.80;;
15480;SDS011;7842;50.904;6.670;2023-03-14T06:44:35;0.55;;;0.40;;
15480;SDS011;7842;50.904;6.670;2023-03-14T06:47:01;0.90;;;0.80;;
15480;SDS011;7842;50.904;6.670;2023-03-14T06:49:28;0.40;;;0.40;;
15480;SDS011;7842;50.904;6.670;2023-03-14T06:51:54;1.00;;;0.50;;
15480;SDS011;7842;50.904;6.670;2023-03-14T06:54:20;0.90;;;0.40;;
15480;SDS011;7842;50.904;6.670;2023-03-14T06:56:46;0.70;;;0.50;;
15480;SDS011;7842;50.904;6.670;2023-03-14T06:59:12;0.60;;;0.30;;
15480;SDS011;7842;50.904;6.670;2023-03-14T07:01:38;0.90;;;0.40;;
15480;SDS011;7842;50.904;6.670;2023-03-14T07:04:05;0.40;;;0.40;;
15480;SDS011;7842;50.904;6.670;2023-03-14T07:06:31;0.40;;;0.40;;
15480;SDS011;7842;50.904;6.670;2023-03-14T07:08:57;0.65;;;0.50;;
15480;SDS011;7842;50.904;6.670;2023-03-14T07:11:23;0.50;;;0.40;;
15480;SDS011;7842;50.904;6.670;2023-03-14T07:13:49;0.40;;;0.40;;
15480;SDS011;7842;50.904;6.670;2023-03-14T07:16:15;0.50;;;0.40;;
15480;SDS011;7842;50.904;6.670;2023-03-14T07:18:41;0.45;;;0.30;;
15480;SDS011;7842;50.904;6.670;2023-03-14T07:21:07;1.10;;;0.50;;
15480;SDS011;7842;50.904;6.670;2023-03-14T07:23:34;0.80;;;0.60;;
15480;SDS011;7842;50.904;6.670;2023-03-14T07:26:00;0.65;;;0.50;;
15480;SDS011;7842;50.904;6.670;2023-03-14T07:28:26;0.43;;;0.40;;
15480;SDS011;7842;50.904;6.670;2023-03-14T07:30:53;0.63;;;0.40;;
15480;SDS011;7842;50.904;6.670;2023-03-14T07:33:19;0.40;;;0.40;;
15480;SDS011;7842;50.904;6.670;2023-03-14T07:35:46;0.45;;;0.40;;
15480;SDS011;7842;50.904;6.670;2023-03-14T07:38:12;0.40;;;0.40;;
15480;SDS011;7842;50.904;6.670;2023-03-14T07:40:39;0.40;;;0.40;;
15480;SDS011;7842;50.904;6.670;2023-03-14T07:43:05;0.32;;;0.32;;
15480;SDS011;7842;50.904;6.670;2023-03-14T07:45:31;0.30;;;0.30;;
15480;SDS011;7842;50.904;6.670;2023-03-14T07:47:57;0.30;;;0.30;;
15480;SDS011;7842;50.904;6.670;2023-03-14T07:50:23;0.43;;;0.40;;
15480;SDS011;7842;50.904;6.670;2023-03-14T07:52:50;0.20;;;0.20;;
15480;SDS011;7842;50.904;6.670;2023-03-14T07:55:16;0.20;;;0.20;;
15480;SDS011;7842;50.904;6.670;2023-03-14T07:57:42;0.25;;;0.25;;
15480;SDS011;7842;50.904;6.670;2023-03-14T08:00:09;0.30;;;0.30;;
15480;SDS011;7842;50.904;6.670;2023-03-14T08:02:36;1.05;;;0.50;;
15480;SDS011;7842;50.904;6.670;2023-03-14T08:05:02;0.57;;;0.50;;
15480;SDS011;7842;50.904;6.670;2023-03-14T08:07:28;0.90;;;0.40;;
15480;SDS011;7842;50.904;6.670;2023-03-14T08:09:54;0.40;;;0.38;;
15480;SDS011;7842;50.904;6.670;2023-03-14T08:12:20;0.60;;;0.40;;
15480;SDS011;7842;50.904;6.670;2023-03-14T08:14:45;0.87;;;0.47;;
15480;SDS011;7842;50.904;6.670;2023-03-14T08:17:12;0.50;;;0.40;;
15480;SDS011;7842;50.904;6.670;2023-03-14T08:19:38;0.50;;;0.40;;
15480;SDS011;7842;50.904;6.670;2023-03-14T08:22:04;0.60;;;0.50;;
15480;SDS011;7842;50.904;6.670;2023-03-14T08:24:30;1.08;;;0.50;;
15480;SDS011;7842;50.904;6.670;2023-03-14T08:26:56;2.38;;;0.60;;
15480;SDS011;7842;50.904;6.670;2023-03-14T08:29:21;0.90;;;0.70;;
15480;SDS011;7842;50.904;6.670;2023-03-14T08:31:47;0.70;;;0.50;;
15480;SDS011;7842;50.904;6.670;2023-03-14T08:34:13;0.95;;;0.70;;
15480;SDS011;7842;50.904;6.670;2023-03-14T08:36:40;1.15;;;0.60;;
15480;SDS011;7842;50.904;6.670;2023-03-14T08:39:05;1.20;;;0.80;;
15480;SDS011;7842;50.904;6.670;2023-03-14T08:41:32;1.17;;;0.73;;
15480;SDS011;7842;50.904;6.670;2023-03-14T08:43:58;0.67;;;0.57;;
15480;SDS011;7842;50.904;6.670;2023-03-14T08:46:23;1.63;;;0.83;;
15480;SDS011;7842;50.904;6.670;2023-03-14T08:48:49;1.23;;;0.70;;
15480;SDS011;7842;50.904;6.670;2023-03-14T08:51:15;1.17;;;0.70;;
15480;SDS011;7842;50.904;6.670;2023-03-14T08:53:42;0.93;;;0.63;;
15480;SDS011;7842;50.904;6.670;2023-03-14T08:56:08;1.33;;;0.70;;
15480;SDS011;7842;50.904;6.670;2023-03-14T08:58:35;1.27;;;0.75;;
15480;SDS011;7842;50.904;6.670;2023-03-14T09:01:03;0.68;;;0.68;;
15480;SDS011;7842;50.904;6.670;2023-03-14T09:03:30;1.60;;;0.70;;
15480;SDS011;7842;50.904;6.670;2023-03-14T09:05:56;0.90;;;0.60;;
15480;SDS011;7842;50.904;6.670;2023-03-14T09:08:22;1.08;;;0.70;;
15480;SDS011;7842;50.904;6.670;2023-03-14T09:10:48;1.00;;;0.68;;
15480;SDS011;7842;50.904;6.670;2023-03-14T09:13:13;2.20;;;0.70;;
15480;SDS011;7842;50.904;6.670;2023-03-14T09:15:39;0.80;;;0.80;;
15480;SDS011;7842;50.904;6.670;2023-03-14T09:18:07;1.47;;;0.90;;
15480;SDS011;7842;50.904;6.670;2023-03-14T09:20:32;1.10;;;0.77;;
15480;SDS011;7842;50.904;6.670;2023-03-14T09:22:58;1.25;;;0.70;;
15480;SDS011;7842;50.904;6.670;2023-03-14T09:25:24;1.77;;;0.90;;
15480;SDS011;7842;50.904;6.670;2023-03-14T09:27:50;2.20;;;1.10;;
15480;SDS011;7842;50.904;6.670;2023-03-14T09:30:15;0.80;;;0.70;;
15480;SDS011;7842;50.904;6.670;2023-03-14T09:32:42;0.80;;;0.80;;
15480;SDS011;7842;50.904;6.670;2023-03-14T09:35:08;0.98;;;0.88;;
15480;SDS011;7842;50.904;6.670;2023-03-14T09:37:34;0.80;;;0.70;;
15480;SDS011;7842;50.904;6.670;2023-03-14T09:40:00;1.10;;;0.60;;
15480;SDS011;7842;50.904;6.670;2023-03-14T09:42:33;0.70;;;0.60;;
15480;SDS011;7842;50.904;6.670;2023-03-14T09:45:00;1.20;;;0.88;;
15480;SDS011;7842;50.904;6.670;2023-03-14T09:47:27;1.15;;;1.02;;
15480;SDS011;7842;50.904;6.670;2023-03-14T09:49:53;3.95;;;2.58;;
15480;SDS011;7842;50.904;6.670;2023-03-14T09:52:30;4.45;;;2.65;;
15480;SDS011;7842;50.904;6.670;2023-03-14T09:54:58;3.78;;;2.50;;
15480;SDS011;7842;50.904;6.670;2023-03-14T09:57:25;1.40;;;1.20;;
15480;SDS011;7842;50.904;6.670;2023-03-14T09:59:54;0.90;;;0.90;;
15480;SDS011;7842;50.904;6.670;2023-03-14T10:02:32;1.27;;;1.10;;
15480;SDS011;7842;50.904;6.670;2023-03-14T10:04:59;2.00;;;1.20;;
15480;SDS011;7842;50.904;6.670;2023-03-14T10:07:30;2.67;;;1.00;;
15480;SDS011;7842;50.904;6.670;2023-03-14T10:09:56;1.10;;;1.00;;
15480;SDS011;7842;50.904;6.670;2023-03-14T10:12:35;1.38;;;1.10;;
15480;SDS011;7842;50.904;6.670;2023-03-14T10:15:06;2.30;;;1.30;;
15480;SDS011;7842;50.904;6.670;2023-03-14T10:23:04;2.10;;;1.95;;
15480;SDS011;7842;50.904;6.670;2023-03-14T10:25:31;1.90;;;1.80;;
15480;SDS011;7842;50.904;6.670;2023-03-14T10:27:58;2.27;;;1.50;;
15480;SDS011;7842;50.904;6.670;2023-03-14T10:32:56;2.38;;;1.58;;
15480;SDS011;7842;50.904;6.670;2023-03-14T10:35:23;2.30;;;1.33;;
15480;SDS011;7842;50.904;6.670;2023-03-14T10:37:56;1.60;;;1.03;;
15480;SDS011;7842;50.904;6.670;2023-03-14T10:40:26;1.83;;;1.10;;
15480;SDS011;7842;50.904;6.670;2023-03-14T10:42:53;1.60;;;1.20;;
15480;SDS011;7842;50.904;6.670;2023-03-14T10:47:49;2.03;;;1.10;;
15480;SDS011;7842;50.904;6.670;2023-03-14T10:50:26;2.50;;;1.10;;
15480;SDS011;7842;50.904;6.670;2023-03-14T10:52:53;1.80;;;0.80;;
15480;SDS011;7842;50.904;6.670;2023-03-14T10:55:19;1.98;;;1.00;;
15480;SDS011;7842;50.904;6.670;2023-03-14T10:57:46;3.03;;;1.20;;
15480;SDS011;7842;50.904;6.670;2023-03-14T11:00:19;2.42;;;1.02;;
15480;SDS011;7842;50.904;6.670;2023-03-14T11:09:06;1.58;;;0.85;;
15480;SDS011;7842;50.904;6.670;2023-03-14T11:16:43;1.50;;;1.20;;
15480;SDS011;7842;50.904;6.670;2023-03-14T11:27:23;1.48;;;1.25;;
15480;SDS011;7842;50.904;6.670;2023-03-14T11:32:24;2.83;;;1.83;;
15480;SDS011;7842;50.904;6.670;2023-03-14T11:34:53;2.92;;;1.75;;
15480;SDS011;7842;50.904;6.670;2023-03-14T11:40:17;1.92;;;0.70;;
15480;SDS011;7842;50.904;6.670;2023-03-14T11:42:44;0.60;;;0.60;;
15480;SDS011;7842;50.904;6.670;2023-03-14T11:45:45;0.70;;;0.50;;
15480;SDS011;7842;50.904;6.670;2023-03-14T11:48:12;1.00;;;0.40;;
15480;SDS011;7842;50.904;6.670;2023-03-14T11:50:39;1.10;;;0.95;;
15480;SDS011;7842;50.904;6.670;2023-03-14T11:53:09;1.00;;;0.80;;
15480;SDS011;7842;50.904;6.670;2023-03-14T11:55:44;1.20;;;1.10;;
15480;SDS011;7842;50.904;6.670;2023-03-14T12:00:39;1.58;;;1.08;;
15480;SDS011;7842;50.904;6.670;2023-03-14T12:11:02;2.50;;;1.63;;
15480;SDS011;7842;50.904;6.670;2023-03-14T12:13:33;2.90;;;1.48;;
15480;SDS011;7842;50.904;6.670;2023-03-14T12:16:00;2.17;;;1.50;;
15480;SDS011;7842;50.904;6.670;2023-03-14T12:18:38;3.27;;;1.40;;
15480;SDS011;7842;50.904;6.670;2023-03-14T12:21:07;1.88;;;1.27;;
15480;SDS011;7842;50.904;6.670;2023-03-14T12:23:44;2.55;;;1.27;;
15480;SDS011;7842;50.904;6.670;2023-03-14T12:28:44;3.08;;;1.35;;
15480;SDS011;7842;50.904;6.670;2023-03-14T12:44:46;2.43;;;1.40;;
15480;SDS011;7842;50.904;6.670;2023-03-14T12:49:52;2.90;;;1.30;;
15480;SDS011;7842;50.904;6.670;2023-03-14T12:52:27;3.70;;;1.40;;
15480;SDS011;7842;50.904;6.670;2023-03-14T12:55:00;3.03;;;1.50;;
15480;SDS011;7842;50.904;6.670;2023-03-14T12:58:15;2.85;;;1.58;;
15480;SDS011;7842;50.904;6.670;2023-03-14T13:00:34;4.47;;;1.45;;
15480;SDS011;7842;50.904;6.670;2023-03-14T13:03:02;3.33;;;1.30;;
15480;SDS011;7842;50.904;6.670;2023-03-14T13:05:37;3.05;;;1.30;;
15480;SDS011;7842;50.904;6.670;2023-03-14T13:08:19;4.45;;;1.50;;
15480;SDS011;7842;50.904;6.670;2023-03-14T13:10:57;3.10;;;1.20;;
15480;SDS011;7842;50.904;6.670;2023-03-14T13:13:24;4.45;;;1.45;;
15480;SDS011;7842;50.904;6.670;2023-03-14T13:15:55;4.45;;;1.30;;
15480;SDS011;7842;50.904;6.670;2023-03-14T13:18:42;5.38;;;1.60;;
15480;SDS011;7842;50.904;6.670;2023-03-14T13:21:18;3.90;;;1.77;;
15480;SDS011;7842;50.904;6.670;2023-03-14T13:23:55;4.32;;;1.70;;
15480;SDS011;7842;50.904;6.670;2023-03-14T13:26:21;4.55;;;1.48;;
15480;SDS011;7842;50.904;6.670;2023-03-14T13:28:49;4.35;;;1.50;;
15480;SDS011;7842;50.904;6.670;2023-03-14T13:31:20;5.38;;;1.73;;
15480;SDS011;7842;50.904;6.670;2023-03-14T13:33:49;8.10;;;2.15;;
15480;SDS011;7842;50.904;6.670;2023-03-14T13:36:24;7.13;;;1.90;;
15480;SDS011;7842;50.904;6.670;2023-03-14T13:38:55;7.18;;;2.90;;
15480;SDS011;7842;50.904;6.670;2023-03-14T13:41:22;8.27;;;2.72;;
15480;SDS011;7842;50.904;6.670;2023-03-14T13:43:49;8.57;;;2.13;;
15480;SDS011;7842;50.904;6.670;2023-03-14T13:46:23;6.07;;;1.52;;
15480;SDS011;7842;50.904;6.670;2023-03-14T13:48:52;7.00;;;2.00;;
15480;SDS011;7842;50.904;6.670;2023-03-14T13:51:19;6.67;;;1.70;;
15480;SDS011;7842;50.904;6.670;2023-03-14T13:53:52;9.77;;;2.40;;
15480;SDS011;7842;50.904;6.670;2023-03-14T13:56:20;6.33;;;2.10;;
15480;SDS011;7842;50.904;6.670;2023-03-14T13:58:47;9.33;;;2.10;;
15480;SDS011;7842;50.904;6.670;2023-03-14T14:01:16;7.65;;;2.15;;
15480;SDS011;7842;50.904;6.670;2023-03-14T14:03:50;7.82;;;2.03;;
15480;SDS011;7842;50.904;6.670;2023-03-14T14:06:27;5.25;;;1.85;;
15480;SDS011;7842;50.904;6.670;2023-03-14T14:09:00;9.27;;;1.88;;
15480;SDS011;7842;50.904;6.670;2023-03-14T14:11:48;7.32;;;1.88;;
15480;SDS011;7842;50.904;6.670;2023-03-14T14:14:21;8.27;;;2.00;;
15480;SDS011;7842;50.904;6.670;2023-03-14T14:17:00;10.52;;;2.33;;
15480;SDS011;7842;50.904;6.670;2023-03-14T14:19:28;8.20;;;2.50;;
15480;SDS011;7842;50.904;6.670;2023-03-14T14:21:58;6.93;;;2.10;;
15480;SDS011;7842;50.904;6.670;2023-03-14T14:24:25;7.53;;;2.00;;
15480;SDS011;7842;50.904;6.670;2023-03-14T14:26:59;12.10;;;3.08;;
15480;SDS011;7842;50.904;6.670;2023-03-14T14:29:27;7.18;;;2.28;;
15480;SDS011;7842;50.904;6.670;2023-03-14T14:32:01;9.00;;;2.43;;
15480;SDS011;7842;50.904;6.670;2023-03-14T14:34:28;10.47;;;2.53;;
15480;SDS011;7842;50.904;6.670;2023-03-14T14:36:54;8.57;;;2.27;;
15480;SDS011;7842;50.904;6.670;2023-03-14T14:39:24;8.50;;;2.37;;
15480;SDS011;7842;50.904;6.670;2023-03-14T14:41:53;8.10;;;2.40;;
15480;SDS011;7842;50.904;6.670;2023-03-14T14:44:29;9.73;;;2.80;;
15480;SDS011;7842;50.904;6.670;2023-03-14T14:46:58;11.60;;;3.05;;
15480;SDS011;7842;50.904;6.670;2023-03-14T14:49:28;9.60;;;2.60;;
15480;SDS011;7842;50.904;6.670;2023-03-14T14:52:00;9.48;;;2.65;;
15480;SDS011;7842;50.904;6.670;2023-03-14T14:54:32;11.48;;;2.42;;
15480;SDS011;7842;50.904;6.670;2023-03-14T14:57:03;10.40;;;2.80;;
15480;SDS011;7842;50.904;6.670;2023-03-14T14:59:30;10.17;;;2.67;;
15480;SDS011;7842;50.904;6.670;2023-03-14T15:02:00;11.80;;;2.92;;
15480;SDS011;7842;50.904;6.670;2023-03-14T15:04:27;11.60;;;2.50;;
15480;SDS011;7842;50.904;6.670;2023-03-14T15:06:56;11.77;;;3.20;;
15480;SDS011;7842;50.904;6.670;2023-03-14T15:09:21;12.27;;;3.55;;
15480;SDS011;7842;50.904;6.670;2023-03-14T15:11:47;12.20;;;3.60;;
15480;SDS011;7842;50.904;6.670;2023-03-14T15:14:14;9.40;;;3.17;;
15480;SDS011;7842;50.904;6.670;2023-03-14T15:16:40;10.50;;;3.38;;
15480;SDS011;7842;50.904;6.670;2023-03-14T15:19:19;11.13;;;3.03;;
15480;SDS011;7842;50.904;6.670;2023-03-14T15:21:49;14.80;;;3.35;;
15480;SDS011;7842;50.904;6.670;2023-03-14T15:24:15;11.82;;;3.42;;
15480;SDS011;7842;50.904;6.670;2023-03-14T15:26:41;14.73;;;3.37;;
15480;SDS011;7842;50.904;6.670;2023-03-14T15:29:09;11.05;;;3.35;;
15480;SDS011;7842;50.904;6.670;2023-03-14T15:31:37;10.53;;;3.23;;
15480;SDS011;7842;50.904;6.670;2023-03-14T15:34:04;10.13;;;2.90;;
15480;SDS011;7842;50.904;6.670;2023-03-14T15:36:31;9.30;;;3.38;;
15480;SDS011;7842;50.904;6.670;2023-03-14T15:38:58;11.77;;;3.55;;
15480;SDS011;7842;50.904;6.670;2023-03-14T15:41:25;12.18;;;3.95;;
15480;SDS011;7842;50.904;6.670;2023-03-14T15:43:51;12.07;;;4.13;;
15480;SDS011;7842;50.904;6.670;2023-03-14T15:46:17;10.93;;;3.03;;
15480;SDS011;7842;50.904;6.670;2023-03-14T15:48:43;10.90;;;3.03;;
15480;SDS011;7842;50.904;6.670;2023-03-14T15:51:10;12.02;;;3.08;;
15480;SDS011;7842;50.904;6.670;2023-03-14T15:53:36;14.02;;;3.33;;
15480;SDS011;7842;50.904;6.670;2023-03-14T15:56:03;14.27;;;3.28;;
15480;SDS011;7842;50.904;6.670;2023-03-14T15:58:30;11.32;;;3.08;;
15480;SDS011;7842;50.904;6.670;2023-03-14T16:00:58;12.63;;;3.00;;
15480;SDS011;7842;50.904;6.670;2023-03-14T16:03:26;12.55;;;3.10;;
15480;SDS011;7842;50.904;6.670;2023-03-14T16:05:52;10.63;;;3.05;;
15480;SDS011;7842;50.904;6.670;2023-03-14T16:08:17;10.30;;;3.10;;
15480;SDS011;7842;50.904;6.670;2023-03-14T16:10:43;11.67;;;3.10;;
15480;SDS011;7842;50.904;6.670;2023-03-14T16:13:10;11.05;;;3.10;;